Flight Track Log - Related Links

Times and Time Zones

All times are in EST time to prevent confusion due to time zone crossing. See the EJA583 flight status page for this flight to view local times or setup timezone preferences in your user account.

Time Position Orientation Groundspeed Altitude Reporting Facility
EST Latitude Longitude Course Direction KTS MPH feet Rate Location/Type
Tue 11:43:58 AM 35.0333 -89.9667 180° South 164 189 1,000  Level KMEM
Tue 11:44:40 AM 35.0000 -89.9667 180° South 175 201 3,700 3,882 Climbing KMEM
Tue 11:45:40 AM 34.9500 -90.0000 209° Southwest 197 227 7,600 3,750 Climbing KMEM
Tue 11:46:40 AM 34.9667 -90.0667 287° West 249 287 11,200 3,200 Climbing KMEM
Tue 11:47:40 AM 35.0333 -90.0667 360° North 304 350 14,000 1,907 Climbing KMEM
Tue 11:49:11 AM 35.1842 -90.0597 North 360 414 16,000 1,391 Climbing Memphis Center
Tue 11:50:11 AM 35.2969 -90.0569 North 403 464 17,500 2,200 Climbing Memphis Center
Tue 11:51:11 AM 35.4033 -90.0539 North 391 450 20,400 2,550 Climbing Memphis Center
Tue 11:52:11 AM 35.4931 -90.0944 340° North 344 396 22,600 1,350 Climbing Memphis Center
Tue 11:53:11 AM 35.5517 -90.1861 308° West 323 372 23,100 1,200 Climbing Memphis Center
Tue 11:54:11 AM 35.6103 -90.2881 305° West 341 392 25,000 1,750 Climbing Memphis Center
Tue 11:55:11 AM 35.6622 -90.3725 307° West 353 406 26,600 1,600 Climbing Memphis Center
Tue 11:56:11 AM 35.7186 -90.4747 304° West 342 394 28,200 1,400 Climbing Memphis Center
Tue 11:57:11 AM 35.7747 -90.5744 305° West 348 400 29,400 1,100 Climbing Memphis Center
Tue 11:58:11 AM 35.8267 -90.6592 307° West 353 406 30,400 1,150 Climbing Memphis Center
Tue 11:59:11 AM 35.8828 -90.7567 305° West 353 406 31,700 1,250 Climbing Memphis Center
Tue 12:00:11 PM 35.9428 -90.8544 307° West 353 406 32,900 1,150 Climbing Memphis Center
Tue 12:01:11 PM 35.9967 -90.9497 305° West 353 406 34,000 550 Climbing Memphis Center
Tue 12:02:11 PM 36.0544 -91.0503 305° West 353 406 34,000  Level Memphis Center
Tue 12:03:11 PM 36.1186 -91.1561 307° West 363 418 34,000  Level Memphis Center
Tue 12:04:11 PM 36.1803 -91.2622 306° West 373 429 34,000  Level Memphis Center
Tue 12:05:11 PM 36.2422 -91.3708 305° West 383 441 34,000  Level Memphis Center
Tue 12:06:11 PM 36.3036 -91.4772 306° West 383 441 34,000  Level Memphis Center
Tue 12:07:11 PM 36.3653 -91.5836 306° West 378 435 34,000  Level Memphis Center
Tue 12:08:11 PM 36.4289 -91.6906 306° West 378 435 34,000  Level Memphis Center
Tue 12:09:11 PM 36.5089 -91.7975 313° West 384 442 34,000  Level Memphis Center
Tue 12:11:05 PM 36.6497 -91.9664 316° Northwest 397 457 34,000  Level Kansas City Center
Tue 12:12:07 PM 36.7300 -92.0597 317° Northwest 394 453 34,000  Level Kansas City Center
Tue 12:13:09 PM 36.8258 -92.1750 316° Northwest 396 456 34,000  Level Kansas City Center
Tue 12:14:11 PM 36.9058 -92.2700 316° Northwest 395 455 34,000  Level Kansas City Center
Tue 12:15:12 PM 36.9842 -92.3642 316° Northwest 392 451 34,000  Level Kansas City Center
Tue 12:16:14 PM 37.0628 -92.4581 316° Northwest 389 448 34,000  Level Kansas City Center
Tue 12:17:28 PM 37.1567 -92.5725 316° Northwest 389 448 34,000  Level Kansas City Center
Tue 12:18:30 PM 37.2342 -92.6681 316° Northwest 388 447 34,000  Level Kansas City Center
Tue 12:19:32 PM 37.3114 -92.7603 316° Northwest 386 444 34,000  Level Kansas City Center
Tue 12:20:33 PM 37.3878 -92.8544 316° Northwest 384 442 34,000  Level Kansas City Center
Tue 12:21:35 PM 37.4647 -92.9481 316° Northwest 382 440 34,000  Level Kansas City Center
Tue 12:22:37 PM 37.5403 -93.0411 316° Northwest 379 436 34,000  Level Kansas City Center
Tue 12:23:38 PM 37.6317 -93.1519 316° Northwest 378 435 34,000  Level Kansas City Center
Tue 12:24:40 PM 37.7053 -93.2453 315° West 376 433 34,000 -97 Level Kansas City Center
Tue 12:25:42 PM 37.7806 -93.3381 316° Northwest 375 432 33,800 -585 Descending Kansas City Center
Tue 12:26:43 PM 37.8550 -93.4314 315° West 375 432 32,800 -1,220 Descending Kansas City Center
Tue 12:27:45 PM 37.9317 -93.5236 317° Northwest 377 434 31,300 -1,500 Descending Kansas City Center
Tue 12:28:47 PM 38.0050 -93.6167 315° West 373 429 29,700 -1,548 Descending Kansas City Center
Tue 12:29:49 PM 38.0833 -93.7133 316° Northwest 385 443 28,100 -1,561 Descending Kansas City Center
Tue 12:30:50 PM 38.1811 -93.7931 327° Northwest 421 484 26,500 -1,561 Descending Kansas City Center
Tue 12:31:52 PM 38.2903 -93.8561 336° Northwest 431 496 24,900 -1,597 Descending Kansas City Center
Tue 12:32:54 PM 38.4006 -93.9197 336° Northwest 432 497 23,200 -1,805 Descending Kansas City Center
Tue 12:33:55 PM 38.5258 -93.9917 336° Northwest 432 497 21,200 -1,756 Descending Kansas City Center
Tue 12:34:57 PM 38.6253 -94.0472 336° Northwest 411 473 19,600 -1,500 Descending Kansas City Center
Tue 12:35:59 PM 38.7283 -94.1283 328° Northwest 387 445 18,100 -1,597 Descending Kansas City Center
Tue 12:37:01 PM 38.8003 -94.2083 319° Northwest 362 417 16,300 -2,341 Descending Kansas City Center
Tue 12:38:02 PM 38.9011 -94.2817 330° Northwest 384 442 13,300 -2,585 Descending Kansas City Center
Tue 12:39:04 PM 38.9928 -94.3236 340° North 371 427 11,000 -2,177 Descending Kansas City Center
Tue 12:40:06 PM 39.0925 -94.3686 341° North 342 394 8,800 -2,000 Descending Kansas City Center
Tue 12:41:07 PM 39.1711 -94.4092 338° Northwest 323 372 6,900 -2,000 Descending Kansas City Center
Tue 12:42:09 PM 39.2453 -94.4425 341° North 300 345 4,700 -1,887 Descending Kansas City Center
Tue 12:43:11 PM 39.3153 -94.4931 331° Northwest 257 296 3,000 -823 Descending Kansas City Center
Tue 12:44:13 PM 39.2928 -94.5436 240° Southwest 176 203 3,000  Level Kansas City Center
Tue 12:45:14 PM 39.2444 -94.5592 194° South 156 180 3,000 -293 Level Kansas City Center
Tue 12:46:16 PM 39.2125 -94.5669 191° South 123 142 2,400 -629 Descending Kansas City Center
Tue 12:47:18 PM 39.1783 -94.5778 194° South 113 130 1,700 -532 Descending Kansas City Center
Tue 12:48:20 PM 39.1478 -94.5856 191° South 114 131 1,300 -387 Descending Kansas City Center

Login

Don't have an account? Register now (free) for customized features, flight alerts, and more!